sensor_id;sensor_type;location;lat;lon;timestamp;pressure;altitude;pressure_sealevel;temperature;humidity
4745;BME280;2386;42.138;24.746;2023-05-08T00:01:45;99852.16;;;15.60;62.56
4745;BME280;2386;42.138;24.746;2023-05-08T00:04:11;99859.84;;;15.68;62.74
4745;BME280;2386;42.138;24.746;2023-05-08T00:06:37;99851.38;;;15.69;62.99
4745;BME280;2386;42.138;24.746;2023-05-08T00:09:02;99837.16;;;15.67;62.57
4745;BME280;2386;42.138;24.746;2023-05-08T00:11:28;99839.84;;;15.62;62.81
4745;BME280;2386;42.138;24.746;2023-05-08T00:13:53;99837.16;;;15.67;62.80
4745;BME280;2386;42.138;24.746;2023-05-08T00:16:18;99846.75;;;15.70;61.97
4745;BME280;2386;42.138;24.746;2023-05-08T00:18:44;99851.44;;;15.74;61.69
4745;BME280;2386;42.138;24.746;2023-05-08T00:21:10;99844.84;;;15.70;61.33
4745;BME280;2386;42.138;24.746;2023-05-08T00:23:35;99853.00;;;15.65;62.64
4745;BME280;2386;42.138;24.746;2023-05-08T00:26:00;99843.97;;;15.65;62.81
4745;BME280;2386;42.138;24.746;2023-05-08T00:28:26;99860.06;;;15.61;63.43
4745;BME280;2386;42.138;24.746;2023-05-08T00:30:51;99843.53;;;15.51;63.17
4745;BME280;2386;42.138;24.746;2023-05-08T00:33:17;99850.66;;;15.52;63.12
4745;BME280;2386;42.138;24.746;2023-05-08T00:35:42;99836.00;;;15.58;62.03
4745;BME280;2386;42.138;24.746;2023-05-08T00:38:08;99839.06;;;15.40;63.06
4745;BME280;2386;42.138;24.746;2023-05-08T00:40:34;99841.66;;;15.30;63.96
4745;BME280;2386;42.138;24.746;2023-05-08T00:43:00;99852.47;;;15.20;65.10
4745;BME280;2386;42.138;24.746;2023-05-08T00:45:32;99845.69;;;15.22;65.37
4745;BME280;2386;42.138;24.746;2023-05-08T00:47:59;99847.34;;;15.23;65.18
4745;BME280;2386;42.138;24.746;2023-05-08T00:50:24;99857.03;;;15.36;64.32
4745;BME280;2386;42.138;24.746;2023-05-08T00:52:50;99859.66;;;15.26;65.14
4745;BME280;2386;42.138;24.746;2023-05-08T00:55:16;99850.38;;;15.27;64.66
4745;BME280;2386;42.138;24.746;2023-05-08T00:57:41;99855.28;;;15.03;65.77
4745;BME280;2386;42.138;24.746;2023-05-08T01:00:11;99865.56;;;15.18;66.14
4745;BME280;2386;42.138;24.746;2023-05-08T01:02:37;99870.59;;;15.04;65.74
4745;BME280;2386;42.138;24.746;2023-05-08T01:05:04;99879.81;;;15.20;65.26
4745;BME280;2386;42.138;24.746;2023-05-08T01:07:31;99874.78;;;15.11;64.90
4745;BME280;2386;42.138;24.746;2023-05-08T01:09:56;99865.81;;;15.16;65.06
4745;BME280;2386;42.138;24.746;2023-05-08T01:15:26;99880.13;;;15.01;65.97
4745;BME280;2386;42.138;24.746;2023-05-08T01:26:25;99885.34;;;14.81;65.91
4745;BME280;2386;42.138;24.746;2023-05-08T01:34:39;99874.19;;;14.66;65.85
4745;BME280;2386;42.138;24.746;2023-05-08T01:37:11;99865.84;;;14.56;66.03
4745;BME280;2386;42.138;24.746;2023-05-08T01:42:37;99876.50;;;14.74;65.62
4745;BME280;2386;42.138;24.746;2023-05-08T01:45:11;99878.44;;;14.57;66.34
4745;BME280;2386;42.138;24.746;2023-05-08T01:47:39;99876.69;;;14.67;65.54
4745;BME280;2386;42.138;24.746;2023-05-08T01:50:13;99875.03;;;14.50;65.56
4745;BME280;2386;42.138;24.746;2023-05-08T01:52:50;99875.09;;;14.38;66.25
4745;BME280;2386;42.138;24.746;2023-05-08T01:55:21;99870.59;;;14.43;64.93
4745;BME280;2386;42.138;24.746;2023-05-08T01:57:50;99880.91;;;14.41;65.72
4745;BME280;2386;42.138;24.746;2023-05-08T02:00:20;99869.50;;;14.44;66.60
4745;BME280;2386;42.138;24.746;2023-05-08T02:02:47;99881.50;;;14.43;65.32
4745;BME280;2386;42.138;24.746;2023-05-08T02:05:14;99882.66;;;14.48;66.01
4745;BME280;2386;42.138;24.746;2023-05-08T02:07:41;99878.03;;;14.48;65.10
4745;BME280;2386;42.138;24.746;2023-05-08T02:10:08;99878.50;;;14.28;65.39
4745;BME280;2386;42.138;24.746;2023-05-08T02:12:35;99874.84;;;14.39;65.23
4745;BME280;2386;42.138;24.746;2023-05-08T02:15:02;99862.53;;;14.20;66.41
4745;BME280;2386;42.138;24.746;2023-05-08T02:17:30;99856.25;;;14.36;65.47
4745;BME280;2386;42.138;24.746;2023-05-08T02:19:57;99866.41;;;14.41;65.18
4745;BME280;2386;42.138;24.746;2023-05-08T02:22:25;99867.16;;;14.36;65.96
4745;BME280;2386;42.138;24.746;2023-05-08T02:24:53;99881.00;;;14.46;65.45
4745;BME280;2386;42.138;24.746;2023-05-08T02:27:25;99861.13;;;14.34;65.75
4745;BME280;2386;42.138;24.746;2023-05-08T02:29:52;99881.31;;;14.33;66.29
4745;BME280;2386;42.138;24.746;2023-05-08T02:32:19;99864.94;;;14.17;66.10
4745;BME280;2386;42.138;24.746;2023-05-08T02:34:47;99870.97;;;14.35;64.77
4745;BME280;2386;42.138;24.746;2023-05-08T02:37:15;99870.41;;;14.33;64.61
4745;BME280;2386;42.138;24.746;2023-05-08T02:39:43;99870.91;;;14.47;64.85
4745;BME280;2386;42.138;24.746;2023-05-08T02:42:09;99879.50;;;14.56;64.54
4745;BME280;2386;42.138;24.746;2023-05-08T02:44:35;99874.38;;;14.59;64.29
4745;BME280;2386;42.138;24.746;2023-05-08T02:47:05;99891.91;;;14.46;65.73
4745;BME280;2386;42.138;24.746;2023-05-08T02:50:14;99884.44;;;14.25;66.63
4745;BME280;2386;42.138;24.746;2023-05-08T02:52:53;99869.22;;;14.29;65.72
4745;BME280;2386;42.138;24.746;2023-05-08T02:55:34;99878.28;;;14.46;65.12
4745;BME280;2386;42.138;24.746;2023-05-08T02:58:18;99883.28;;;14.38;65.40
4745;BME280;2386;42.138;24.746;2023-05-08T03:01:30;99885.84;;;14.28;66.95
4745;BME280;2386;42.138;24.746;2023-05-08T03:04:01;99889.41;;;14.28;66.91
4745;BME280;2386;42.138;24.746;2023-05-08T03:06:33;99870.81;;;14.25;66.31
4745;BME280;2386;42.138;24.746;2023-05-08T03:09:01;99876.03;;;14.10;66.09
4745;BME280;2386;42.138;24.746;2023-05-08T03:11:32;99882.31;;;14.27;65.95
4745;BME280;2386;42.138;24.746;2023-05-08T03:14:01;99897.34;;;14.13;66.39
4745;BME280;2386;42.138;24.746;2023-05-08T03:16:31;99904.16;;;14.10;65.85
4745;BME280;2386;42.138;24.746;2023-05-08T03:19:00;99898.69;;;14.10;65.68
4745;BME280;2386;42.138;24.746;2023-05-08T03:21:29;99897.19;;;14.20;65.09
4745;BME280;2386;42.138;24.746;2023-05-08T03:23:57;99895.38;;;14.25;64.07
4745;BME280;2386;42.138;24.746;2023-05-08T03:26:24;99901.91;;;14.07;64.70
4745;BME280;2386;42.138;24.746;2023-05-08T03:28:51;99900.00;;;14.08;64.46
4745;BME280;2386;42.138;24.746;2023-05-08T03:31:19;99902.81;;;13.96;65.49
4745;BME280;2386;42.138;24.746;2023-05-08T03:33:52;99910.94;;;14.08;65.00
4745;BME280;2386;42.138;24.746;2023-05-08T03:36:18;99904.88;;;14.06;64.73
4745;BME280;2386;42.138;24.746;2023-05-08T03:38:43;99899.09;;;14.19;63.75
4745;BME280;2386;42.138;24.746;2023-05-08T03:41:10;99910.44;;;14.11;65.78
4745;BME280;2386;42.138;24.746;2023-05-08T03:43:36;99906.59;;;14.12;65.30
4745;BME280;2386;42.138;24.746;2023-05-08T03:46:04;99898.09;;;13.92;65.82
4745;BME280;2386;42.138;24.746;2023-05-08T03:48:32;99918.91;;;14.14;65.29
4745;BME280;2386;42.138;24.746;2023-05-08T03:51:02;99912.59;;;14.09;66.13
4745;BME280;2386;42.138;24.746;2023-05-08T03:53:30;99922.31;;;14.22;67.08
4745;BME280;2386;42.138;24.746;2023-05-08T03:55:59;99915.38;;;14.14;66.07
4745;BME280;2386;42.138;24.746;2023-05-08T03:58:33;99918.09;;;14.14;67.63
4745;BME280;2386;42.138;24.746;2023-05-08T04:04:51;99934.22;;;13.99;67.33
4745;BME280;2386;42.138;24.746;2023-05-08T04:12:02;99924.06;;;14.11;67.03
4745;BME280;2386;42.138;24.746;2023-05-08T04:15:16;99928.94;;;14.09;67.17
4745;BME280;2386;42.138;24.746;2023-05-08T04:20:03;99930.75;;;14.20;64.02
4745;BME280;2386;42.138;24.746;2023-05-08T04:22:32;99937.69;;;14.28;63.96
4745;BME280;2386;42.138;24.746;2023-05-08T04:24:58;99930.16;;;14.18;63.34
4745;BME280;2386;42.138;24.746;2023-05-08T04:27:25;99930.44;;;14.33;63.02
4745;BME280;2386;42.138;24.746;2023-05-08T04:29:52;99930.63;;;14.43;63.88
4745;BME280;2386;42.138;24.746;2023-05-08T04:32:18;99934.44;;;14.42;61.70
4745;BME280;2386;42.138;24.746;2023-05-08T04:34:45;99931.88;;;14.53;59.75
4745;BME280;2386;42.138;24.746;2023-05-08T04:37:24;99921.34;;;14.61;60.13
4745;BME280;2386;42.138;24.746;2023-05-08T04:39:53;99932.84;;;14.80;59.83
4745;BME280;2386;42.138;24.746;2023-05-08T04:42:19;99925.66;;;14.74;59.48
4745;BME280;2386;42.138;24.746;2023-05-08T04:44:45;99917.56;;;14.62;59.65
4745;BME280;2386;42.138;24.746;2023-05-08T04:47:12;99928.81;;;14.88;58.36
4745;BME280;2386;42.138;24.746;2023-05-08T04:49:37;99917.59;;;14.84;57.75
4745;BME280;2386;42.138;24.746;2023-05-08T04:52:03;99932.03;;;15.01;57.15
4745;BME280;2386;42.138;24.746;2023-05-08T04:54:28;99933.06;;;15.17;55.54
4745;BME280;2386;42.138;24.746;2023-05-08T04:56:54;99930.38;;;15.00;55.17
4745;BME280;2386;42.138;24.746;2023-05-08T04:59:19;99928.03;;;15.09;54.89
4745;BME280;2386;42.138;24.746;2023-05-08T05:01:46;99931.91;;;15.13;54.73
4745;BME280;2386;42.138;24.746;2023-05-08T05:04:11;99912.47;;;15.09;55.04
4745;BME280;2386;42.138;24.746;2023-05-08T05:06:37;99919.78;;;15.26;54.45
4745;BME280;2386;42.138;24.746;2023-05-08T05:09:02;99924.81;;;15.34;54.98
4745;BME280;2386;42.138;24.746;2023-05-08T05:11:29;99916.78;;;15.49;55.05
4745;BME280;2386;42.138;24.746;2023-05-08T05:13:54;99911.00;;;15.45;53.93
4745;BME280;2386;42.138;24.746;2023-05-08T05:16:20;99929.97;;;15.52;54.78
4745;BME280;2386;42.138;24.746;2023-05-08T05:18:45;99928.81;;;15.48;54.64
4745;BME280;2386;42.138;24.746;2023-05-08T05:21:11;99914.63;;;15.51;54.16
4745;BME280;2386;42.138;24.746;2023-05-08T05:23:37;99928.66;;;15.82;54.66
4745;BME280;2386;42.138;24.746;2023-05-08T05:26:03;99907.91;;;15.86;54.59
4745;BME280;2386;42.138;24.746;2023-05-08T05:28:28;99923.38;;;16.02;53.97
4745;BME280;2386;42.138;24.746;2023-05-08T05:30:53;99904.03;;;15.82;54.36
4745;BME280;2386;42.138;24.746;2023-05-08T05:33:19;99903.19;;;16.08;53.80
4745;BME280;2386;42.138;24.746;2023-05-08T05:35:44;99906.34;;;16.22;52.36
4745;BME280;2386;42.138;24.746;2023-05-08T05:38:10;99895.66;;;16.20;52.05
4745;BME280;2386;42.138;24.746;2023-05-08T05:40:35;99908.84;;;16.28;53.02
4745;BME280;2386;42.138;24.746;2023-05-08T05:43:01;99897.91;;;16.28;53.71
4745;BME280;2386;42.138;24.746;2023-05-08T05:45:26;99909.00;;;16.49;51.80
4745;BME280;2386;42.138;24.746;2023-05-08T05:47:52;99910.03;;;16.42;51.02
4745;BME280;2386;42.138;24.746;2023-05-08T05:50:18;99906.78;;;16.46;51.00
4745;BME280;2386;42.138;24.746;2023-05-08T05:52:44;99903.72;;;16.42;51.36
4745;BME280;2386;42.138;24.746;2023-05-08T05:55:10;99891.66;;;16.38;50.61
4745;BME280;2386;42.138;24.746;2023-05-08T05:57:36;99890.44;;;16.61;50.47
4745;BME280;2386;42.138;24.746;2023-05-08T06:00:03;99886.72;;;16.72;51.06
4745;BME280;2386;42.138;24.746;2023-05-08T06:02:29;99886.63;;;16.62;50.00
4745;BME280;2386;42.138;24.746;2023-05-08T06:04:54;99882.97;;;16.83;49.55
4745;BME280;2386;42.138;24.746;2023-05-08T06:07:19;99884.06;;;16.87;49.54
4745;BME280;2386;42.138;24.746;2023-05-08T06:09:46;99892.84;;;16.89;48.84
4745;BME280;2386;42.138;24.746;2023-05-08T06:12:11;99885.13;;;16.81;49.96
4745;BME280;2386;42.138;24.746;2023-05-08T06:14:36;99886.28;;;16.90;49.65
4745;BME280;2386;42.138;24.746;2023-05-08T06:17:02;99889.56;;;16.87;50.29
4745;BME280;2386;42.138;24.746;2023-05-08T06:19:27;99873.88;;;16.78;50.53
4745;BME280;2386;42.138;24.746;2023-05-08T06:21:53;99881.34;;;16.87;50.88
4745;BME280;2386;42.138;24.746;2023-05-08T06:24:19;99889.38;;;17.09;50.85
4745;BME280;2386;42.138;24.746;2023-05-08T06:26:44;99877.91;;;17.17;50.49
4745;BME280;2386;42.138;24.746;2023-05-08T06:29:11;99885.59;;;17.25;50.11
4745;BME280;2386;42.138;24.746;2023-05-08T06:31:36;99889.41;;;17.14;49.68
4745;BME280;2386;42.138;24.746;2023-05-08T06:34:02;99879.28;;;17.25;49.70
4745;BME280;2386;42.138;24.746;2023-05-08T06:36:27;99867.81;;;17.33;49.88
4745;BME280;2386;42.138;24.746;2023-05-08T06:38:52;99875.00;;;17.49;50.08
4745;BME280;2386;42.138;24.746;2023-05-08T06:41:18;99863.22;;;17.54;48.98
4745;BME280;2386;42.138;24.746;2023-05-08T06:43:43;99875.03;;;17.64;49.06
4745;BME280;2386;42.138;24.746;2023-05-08T06:46:09;99863.03;;;17.70;49.08
4745;BME280;2386;42.138;24.746;2023-05-08T06:48:34;99862.22;;;17.80;49.02
4745;BME280;2386;42.138;24.746;2023-05-08T06:50:59;99867.41;;;17.92;48.47
4745;BME280;2386;42.138;24.746;2023-05-08T06:53:26;99853.69;;;17.92;48.63
4745;BME280;2386;42.138;24.746;2023-05-08T06:55:51;99854.78;;;17.96;48.46
4745;BME280;2386;42.138;24.746;2023-05-08T06:58:17;99858.63;;;18.10;48.94
4745;BME280;2386;42.138;24.746;2023-05-08T07:00:42;99851.50;;;17.99;48.32
4745;BME280;2386;42.138;24.746;2023-05-08T07:03:07;99838.31;;;17.91;47.91
4745;BME280;2386;42.138;24.746;2023-05-08T07:05:33;99853.97;;;18.16;52.45
4745;BME280;2386;42.138;24.746;2023-05-08T07:07:58;99854.81;;;18.21;52.14
4745;BME280;2386;42.138;24.746;2023-05-08T07:10:23;99846.00;;;18.19;48.67
4745;BME280;2386;42.138;24.746;2023-05-08T07:12:49;99852.06;;;18.26;48.68
4745;BME280;2386;42.138;24.746;2023-05-08T07:15:14;99845.47;;;18.32;49.88
4745;BME280;2386;42.138;24.746;2023-05-08T07:17:40;99842.44;;;17.83;50.54
4745;BME280;2386;42.138;24.746;2023-05-08T07:20:06;99849.28;;;17.86;54.24
4745;BME280;2386;42.138;24.746;2023-05-08T07:22:32;99843.25;;;18.04;53.57
4745;BME280;2386;42.138;24.746;2023-05-08T07:24:58;99846.00;;;18.09;54.10
4745;BME280;2386;42.138;24.746;2023-05-08T07:27:23;99844.09;;;18.20;52.42
4745;BME280;2386;42.138;24.746;2023-05-08T07:29:49;99834.47;;;18.12;55.63
4745;BME280;2386;42.138;24.746;2023-05-08T07:32:14;99834.47;;;18.27;51.48
4745;BME280;2386;42.138;24.746;2023-05-08T07:34:40;99836.66;;;18.41;52.78
4745;BME280;2386;42.138;24.746;2023-05-08T07:37:06;99835.53;;;18.52;52.75
4745;BME280;2386;42.138;24.746;2023-05-08T07:39:31;99846.50;;;18.67;49.66
4745;BME280;2386;42.138;24.746;2023-05-08T07:41:56;99844.00;;;18.76;51.39
4745;BME280;2386;42.138;24.746;2023-05-08T07:44:22;99831.91;;;18.82;49.34
4745;BME280;2386;42.138;24.746;2023-05-08T07:46:47;99835.72;;;18.91;48.84
4745;BME280;2386;42.138;24.746;2023-05-08T07:49:13;99837.66;;;18.85;48.43
4745;BME280;2386;42.138;24.746;2023-05-08T07:51:38;99840.69;;;18.89;48.36
4745;BME280;2386;42.138;24.746;2023-05-08T07:54:04;99820.31;;;18.95;49.19
4745;BME280;2386;42.138;24.746;2023-05-08T07:56:29;99829.31;;;19.11;49.20
4745;BME280;2386;42.138;24.746;2023-05-08T07:58:55;99821.84;;;19.21;48.79
4745;BME280;2386;42.138;24.746;2023-05-08T08:01:21;99827.88;;;19.23;49.57
4745;BME280;2386;42.138;24.746;2023-05-08T08:03:46;99811.31;;;19.33;48.82
4745;BME280;2386;42.138;24.746;2023-05-08T08:06:12;99812.59;;;19.51;48.96
4745;BME280;2386;42.138;24.746;2023-05-08T08:08:38;99810.34;;;19.63;48.19
4745;BME280;2386;42.138;24.746;2023-05-08T08:11:04;99811.91;;;19.75;48.33
4745;BME280;2386;42.138;24.746;2023-05-08T08:13:30;99802.78;;;19.79;48.31
4745;BME280;2386;42.138;24.746;2023-05-08T08:15:57;99811.25;;;19.88;48.04
4745;BME280;2386;42.138;24.746;2023-05-08T08:18:22;99806.75;;;20.02;47.59
4745;BME280;2386;42.138;24.746;2023-05-08T08:20:47;99799.00;;;20.04;48.02
4745;BME280;2386;42.138;24.746;2023-05-08T08:23:13;99795.16;;;20.05;46.83
4745;BME280;2386;42.138;24.746;2023-05-08T08:25:38;99802.19;;;20.16;47.23
4745;BME280;2386;42.138;24.746;2023-05-08T08:28:04;99806.00;;;20.20;46.36
4745;BME280;2386;42.138;24.746;2023-05-08T08:30:29;99792.44;;;20.00;46.35
4745;BME280;2386;42.138;24.746;2023-05-08T08:32:55;99789.03;;;20.08;46.37
4745;BME280;2386;42.138;24.746;2023-05-08T08:35:20;99790.78;;;19.99;46.37
4745;BME280;2386;42.138;24.746;2023-05-08T08:37:50;99791.25;;;20.06;46.48
4745;BME280;2386;42.138;24.746;2023-05-08T08:40:16;99783.19;;;20.15;46.75
4745;BME280;2386;42.138;24.746;2023-05-08T08:42:41;99779.66;;;20.09;46.75
4745;BME280;2386;42.138;24.746;2023-05-08T08:45:07;99774.91;;;20.15;46.50
4745;BME280;2386;42.138;24.746;2023-05-08T08:47:34;99786.09;;;20.28;47.08
4745;BME280;2386;42.138;24.746;2023-05-08T08:50:07;99780.53;;;20.33;46.17
4745;BME280;2386;42.138;24.746;2023-05-08T08:52:46;99780.16;;;20.45;45.97
4745;BME280;2386;42.138;24.746;2023-05-08T08:55:15;99771.53;;;20.52;47.21
4745;BME280;2386;42.138;24.746;2023-05-08T08:58:10;99763.16;;;20.62;46.69
4745;BME280;2386;42.138;24.746;2023-05-08T09:00:38;99777.41;;;20.69;46.29
4745;BME280;2386;42.138;24.746;2023-05-08T09:03:04;99768.84;;;20.71;45.23
4745;BME280;2386;42.138;24.746;2023-05-08T09:05:32;99758.06;;;20.74;45.64
4745;BME280;2386;42.138;24.746;2023-05-08T09:07:58;99753.59;;;20.78;45.51
4745;BME280;2386;42.138;24.746;2023-05-08T09:10:23;99751.78;;;20.69;44.70
4745;BME280;2386;42.138;24.746;2023-05-08T09:12:50;99760.75;;;20.79;45.42
4745;BME280;2386;42.138;24.746;2023-05-08T09:15:15;99757.09;;;20.84;45.14
4745;BME280;2386;42.138;24.746;2023-05-08T09:17:41;99747.78;;;20.80;45.94
4745;BME280;2386;42.138;24.746;2023-05-08T09:20:07;99739.94;;;20.87;45.58
4745;BME280;2386;42.138;24.746;2023-05-08T09:22:35;99731.59;;;20.92;45.62
4745;BME280;2386;42.138;24.746;2023-05-08T09:25:00;99735.06;;;21.03;45.42
4745;BME280;2386;42.138;24.746;2023-05-08T09:27:28;99716.78;;;21.07;45.82
4745;BME280;2386;42.138;24.746;2023-05-08T09:30:00;99724.56;;;21.23;46.21
4745;BME280;2386;42.138;24.746;2023-05-08T09:32:27;99714.81;;;21.31;46.08
4745;BME280;2386;42.138;24.746;2023-05-08T09:34:52;99706.38;;;21.41;46.36
4745;BME280;2386;42.138;24.746;2023-05-08T09:37:18;99696.00;;;21.52;45.69
4745;BME280;2386;42.138;24.746;2023-05-08T09:39:43;99704.38;;;21.60;45.37
4745;BME280;2386;42.138;24.746;2023-05-08T09:42:11;99697.34;;;21.68;44.84
4745;BME280;2386;42.138;24.746;2023-05-08T09:44:51;99690.09;;;21.72;45.51
4745;BME280;2386;42.138;24.746;2023-05-08T09:47:20;99692.97;;;21.81;44.98
4745;BME280;2386;42.138;24.746;2023-05-08T09:50:05;99687.88;;;21.88;44.73
4745;BME280;2386;42.138;24.746;2023-05-08T09:52:32;99678.91;;;21.96;45.17
4745;BME280;2386;42.138;24.746;2023-05-08T09:55:06;99681.19;;;22.08;45.23
4745;BME280;2386;42.138;24.746;2023-05-08T09:57:34;99690.03;;;22.23;44.90
4745;BME280;2386;42.138;24.746;2023-05-08T10:00:12;99677.13;;;22.19;45.71
4745;BME280;2386;42.138;24.746;2023-05-08T10:02:41;99677.53;;;22.12;44.62
4745;BME280;2386;42.138;24.746;2023-05-08T10:05:31;99674.06;;;22.20;44.15
4745;BME280;2386;42.138;24.746;2023-05-08T10:08:16;99664.53;;;22.13;44.90
4745;BME280;2386;42.138;24.746;2023-05-08T10:10:42;99657.47;;;22.20;46.30
4745;BME280;2386;42.138;24.746;2023-05-08T10:13:07;99657.75;;;22.33;45.18
4745;BME280;2386;42.138;24.746;2023-05-08T10:15:33;99662.56;;;22.41;44.93
4745;BME280;2386;42.138;24.746;2023-05-08T10:18:05;99648.84;;;22.36;45.09
4745;BME280;2386;42.138;24.746;2023-05-08T10:20:32;99658.47;;;22.52;45.10
4745;BME280;2386;42.138;24.746;2023-05-08T10:22:58;99654.38;;;22.49;43.78
4745;BME280;2386;42.138;24.746;2023-05-08T10:25:25;99629.78;;;22.48;44.38
4745;BME280;2386;42.138;24.746;2023-05-08T10:30:30;99633.44;;;22.71;43.82
4745;BME280;2386;42.138;24.746;2023-05-08T10:33:00;99631.81;;;22.83;43.51
4745;BME280;2386;42.138;24.746;2023-05-08T10:35:27;99632.69;;;22.92;43.61
4745;BME280;2386;42.138;24.746;2023-05-08T10:37:53;99634.41;;;23.02;44.37
4745;BME280;2386;42.138;24.746;2023-05-08T10:40:20;99631.69;;;23.11;43.83
4745;BME280;2386;42.138;24.746;2023-05-08T10:42:47;99629.94;;;23.15;43.80
4745;BME280;2386;42.138;24.746;2023-05-08T10:45:13;99624.91;;;23.17;43.48
4745;BME280;2386;42.138;24.746;2023-05-08T10:48:21;99627.28;;;23.32;43.98
4745;BME280;2386;42.138;24.746;2023-05-08T10:51:14;99608.16;;;23.44;43.84
4745;BME280;2386;42.138;24.746;2023-05-08T10:54:01;99608.53;;;23.51;43.11
4745;BME280;2386;42.138;24.746;2023-05-08T10:56:29;99601.31;;;23.64;43.93
4745;BME280;2386;42.138;24.746;2023-05-08T10:58:55;99616.75;;;23.96;44.44
4745;BME280;2386;42.138;24.746;2023-05-08T11:01:22;99622.88;;;24.15;43.56
4745;BME280;2386;42.138;24.746;2023-05-08T11:03:48;99619.31;;;24.23;42.67
4745;BME280;2386;42.138;24.746;2023-05-08T11:06:18;99613.16;;;24.27;42.41
4745;BME280;2386;42.138;24.746;2023-05-08T11:09:02;99599.28;;;24.27;42.68
4745;BME280;2386;42.138;24.746;2023-05-08T11:11:36;99613.19;;;24.44;41.57
4745;BME280;2386;42.138;24.746;2023-05-08T11:19:26;99611.56;;;24.60;41.91
4745;BME280;2386;42.138;24.746;2023-05-08T11:22:11;99603.44;;;24.72;43.97
4745;BME280;2386;42.138;24.746;2023-05-08T11:24:39;99592.50;;;24.76;43.83
4745;BME280;2386;42.138;24.746;2023-05-08T11:27:05;99601.53;;;24.99;42.25
4745;BME280;2386;42.138;24.746;2023-05-08T11:29:30;99586.00;;;25.06;42.77
4745;BME280;2386;42.138;24.746;2023-05-08T11:31:56;99593.50;;;25.06;41.14
4745;BME280;2386;42.138;24.746;2023-05-08T11:37:09;99579.63;;;25.06;44.07
4745;BME280;2386;42.138;24.746;2023-05-08T11:39:35;99584.03;;;25.24;43.28
4745;BME280;2386;42.138;24.746;2023-05-08T11:45:08;99584.09;;;25.53;41.20
4745;BME280;2386;42.138;24.746;2023-05-08T11:47:41;99585.41;;;25.56;42.16
4745;BME280;2386;42.138;24.746;2023-05-08T11:50:08;99582.94;;;25.72;43.05
4745;BME280;2386;42.138;24.746;2023-05-08T11:52:35;99577.88;;;25.74;39.69
4745;BME280;2386;42.138;24.746;2023-05-08T11:55:06;99583.38;;;25.91;42.53
4745;BME280;2386;42.138;24.746;2023-05-08T11:57:32;99573.75;;;26.09;39.12
4745;BME280;2386;42.138;24.746;2023-05-08T12:00:03;99580.94;;;26.69;41.08
4745;BME280;2386;42.138;24.746;2023-05-08T12:02:39;99563.03;;;27.90;39.24
4745;BME280;2386;42.138;24.746;2023-05-08T12:05:09;99555.63;;;29.86;34.25
4745;BME280;2386;42.138;24.746;2023-05-08T12:07:45;99571.66;;;31.68;31.15
4745;BME280;2386;42.138;24.746;2023-05-08T12:10:14;99561.72;;;33.36;29.04
4745;BME280;2386;42.138;24.746;2023-05-08T12:12:41;99555.47;;;34.52;29.06
4745;BME280;2386;42.138;24.746;2023-05-08T12:15:12;99562.34;;;35.67;27.38
4745;BME280;2386;42.138;24.746;2023-05-08T12:17:37;99568.78;;;36.77;25.73
4745;BME280;2386;42.138;24.746;2023-05-08T12:20:15;99568.78;;;36.60;24.47
4745;BME280;2386;42.138;24.746;2023-05-08T12:22:41;99562.34;;;35.49;25.26
4745;BME280;2386;42.138;24.746;2023-05-08T12:25:08;99539.91;;;34.18;26.89
4745;BME280;2386;42.138;24.746;2023-05-08T12:27:37;99540.72;;;32.96;28.63
4745;BME280;2386;42.138;24.746;2023-05-08T12:30:07;99533.50;;;31.86;29.79
4745;BME280;2386;42.138;24.746;2023-05-08T12:32:35;99546.63;;;30.98;30.88
4745;BME280;2386;42.138;24.746;2023-05-08T12:35:01;99543.25;;;30.34;31.78
4745;BME280;2386;42.138;24.746;2023-05-08T12:37:27;99530.00;;;29.84;33.06
4745;BME280;2386;42.138;24.746;2023-05-08T12:39:52;99536.25;;;29.62;34.46
4745;BME280;2386;42.138;24.746;2023-05-08T12:42:18;99541.41;;;29.60;33.84
4745;BME280;2386;42.138;24.746;2023-05-08T12:44:50;99541.28;;;29.72;34.02
4745;BME280;2386;42.138;24.746;2023-05-08T12:47:17;99535.91;;;31.42;31.37
4745;BME280;2386;42.138;24.746;2023-05-08T12:49:43;99528.03;;;33.47;28.56
4745;BME280;2386;42.138;24.746;2023-05-08T12:52:12;99537.16;;;34.98;27.24
4745;BME280;2386;42.138;24.746;2023-05-08T12:54:39;99540.47;;;35.17;26.15
4745;BME280;2386;42.138;24.746;2023-05-08T12:57:12;99540.03;;;35.08;25.48
4745;BME280;2386;42.138;24.746;2023-05-08T12:59:39;99545.13;;;34.74;25.91
4745;BME280;2386;42.138;24.746;2023-05-08T13:02:11;99536.34;;;34.83;26.53
4745;BME280;2386;42.138;24.746;2023-05-08T13:04:37;99535.72;;;35.71;25.13
4745;BME280;2386;42.138;24.746;2023-05-08T13:07:02;99537.34;;;37.45;23.75
4745;BME280;2386;42.138;24.746;2023-05-08T13:09:28;99538.97;;;38.42;22.75
4745;BME280;2386;42.138;24.746;2023-05-08T13:11:53;99539.94;;;38.97;22.40
4745;BME280;2386;42.138;24.746;2023-05-08T13:14:19;99545.31;;;38.12;22.52
4745;BME280;2386;42.138;24.746;2023-05-08T13:16:45;99542.94;;;37.52;23.03
4745;BME280;2386;42.138;24.746;2023-05-08T13:19:12;99539.56;;;37.05;23.56
4745;BME280;2386;42.138;24.746;2023-05-08T13:21:39;99534.41;;;37.59;22.81
4745;BME280;2386;42.138;24.746;2023-05-08T13:24:05;99525.44;;;38.57;22.34
4745;BME280;2386;42.138;24.746;2023-05-08T13:26:31;99514.88;;;38.24;22.90
4745;BME280;2386;42.138;24.746;2023-05-08T13:28:56;99517.94;;;37.43;23.34
4745;BME280;2386;42.138;24.746;2023-05-08T13:31:21;99504.19;;;36.51;24.50
4745;BME280;2386;42.138;24.746;2023-05-08T13:33:47;99522.88;;;35.84;24.65
4745;BME280;2386;42.138;24.746;2023-05-08T13:36:12;99511.97;;;36.08;23.88
4745;BME280;2386;42.138;24.746;2023-05-08T13:38:38;99502.69;;;35.50;24.46
4745;BME280;2386;42.138;24.746;2023-05-08T13:41:03;99507.94;;;36.02;24.56
4745;BME280;2386;42.138;24.746;2023-05-08T13:43:28;99514.28;;;37.43;23.51
4745;BME280;2386;42.138;24.746;2023-05-08T13:45:54;99494.28;;;38.16;22.48
4745;BME280;2386;42.138;24.746;2023-05-08T13:48:19;99500.38;;;38.86;22.19
4745;BME280;2386;42.138;24.746;2023-05-08T13:50:45;99497.91;;;39.72;21.64
4745;BME280;2386;42.138;24.746;2023-05-08T13:53:10;99499.44;;;40.04;21.40
4745;BME280;2386;42.138;24.746;2023-05-08T13:55:36;99485.38;;;39.43;21.78
4745;BME280;2386;42.138;24.746;2023-05-08T13:58:01;99501.34;;;40.11;20.78
4745;BME280;2386;42.138;24.746;2023-05-08T14:00:26;99486.06;;;40.44;20.41